< < Back
Terminal Aerodrome Forecast


Current Version              Previous Versions:   1  2  3  4  5  6  7  8  9  

Terminal Aerodrome Forecast

293
FTUS42 KJAX 021720
TAFGNV
TAF
KGNV 021720Z 0218/0318 VRB03KT P6SM SCT100
     FM022000 05005KT P6SM BKN035
     FM030200 VRB03KT 3SM BR BKN004
     FM030600 00000KT 1SM BR OVC002
      TEMPO 0309/0313 1/2SM FG
     FM031500 12007KT P6SM BKN015=



Latest METAR

515
SAUS70 KWBC 030300 RRM
MTRGNV
METAR KGNV 030253Z 35005KT 10SM FEW120 21/18 A3025 RMK AO2 SLP242
T02060183 53014


USA.gov is the U.S. government's official web portal to all federal, state and local government web resources and services.